Latest Weather Observations for Bulman

IDD60801

Issued at 4:01 pm CST Wednesday 10 February 2016 (issued every 30 minutes, with the page automatically refreshed every 10 minutes)

About weather observations | Map of weather stations | Latest weather observations for NT | Other Formats
Station Details ID: 014627 Name: BULMAN Lat: -13.67 Lon: 134.34 Height: 103.4 m
Data from the previous 72 hours. | See also: Recent months at Bulman
Date/Time
CST
Temp
°C
App
Temp
°C
Dew
Point
Rel
Hum
%
Delta-T
°C
Wind Press
QNH
hPa
Press
MSL
hPa
Rain
since 9 am
mm
Dir
 
Spd
km/h
Gust
km/h
Spd
kts
Gust
kts
10/04:00pm 30.4 33.5 22.8 64 5.2 SSE 11 19 6 10 1003.7 1003.0 0.0
10/03:30pm 31.3 35.6 24.9 69 4.5 ESE 11 15 6 8 1003.9 1003.2 0.0
10/03:00pm 31.3 37.7 24.9 69 4.5 CALM 0 6 0 3 1004.1 1003.4 0.0
10/02:30pm 30.2 34.8 24.1 70 4.3 WSW 7 13 4 7 1004.4 1003.7 0.0
10/02:00pm 31.9 34.1 22.6 58 6.4 WSW 15 26 8 14 1005.0 1004.3 0.0
10/01:30pm 32.8 35.0 22.6 55 7.0 SSW 15 26 8 14 1005.3 1004.6 0.0
10/01:00pm 35.0 39.7 24.0 53 7.7 WSW 6 11 3 6 1005.7 1005.0 0.0
10/12:30pm 34.5 38.7 23.5 52 7.7 SW 7 13 4 7 1006.4 1005.6 0.0
10/12:00pm 34.0 38.9 24.6 58 6.7 NW 7 11 4 6 1006.8 1006.0 0.0
10/11:30am 33.6 38.0 24.5 59 6.4 W 9 15 5 8 1007.1 1006.3 0.0
10/11:00am 33.3 38.2 24.7 60 6.1 SW 7 11 4 6 1007.2 1006.4 0.0
10/10:30am 31.2 35.0 24.1 66 5.0 NNW 11 15 6 8 1007.5 1006.7 0.0
10/10:00am 31.5 35.5 24.4 66 5.0 NNW 11 15 6 8 1007.8 1007.0 0.0
10/09:30am 30.5 34.5 23.7 67 4.7 WNW 9 15 5 8 1008.1 1007.3 0.0
10/09:00am 29.9 34.2 23.6 69 4.4 W 7 15 4 8 1008.2 1007.4 22.4
10/08:30am 29.5 33.7 24.1 72 3.8 WNW 9 15 5 8 1007.8 1007.0 22.4
10/08:00am 28.4 33.6 24.8 81 2.5 WNW 6 15 3 8 1007.8 1007.0 22.4
10/07:30am 27.6 33.7 24.4 83 2.2 CALM 0 4 0 2 1007.6 1006.8 22.4
10/07:00am 26.3 32.7 24.9 92 1.0 CALM 0 0 0 0 1007.1 1006.3 22.4
10/06:30am 26.0 31.7 24.4 91 1.1 NW 2 6 1 3 1006.7 1005.9 22.4
10/06:00am 25.9 31.8 24.7 93 0.8 NNW 2 6 1 3 1006.5 1005.7 22.4
10/05:30am 25.9 32.3 24.9 94 0.7 CALM 0 0 0 0 1006.1 1005.4 22.4
10/05:00am 26.0 32.5 25.1 95 0.6 CALM 0 0 0 0 1005.7 1005.0 22.4
10/04:30am 25.9 32.3 24.9 94 0.7 CALM 0 0 0 0 1005.4 1004.7 22.4
10/04:00am 25.8 32.1 24.8 94 0.7 CALM 0 0 0 0 1005.4 1004.7 22.4
10/03:30am 25.8 31.9 24.4 92 1.0 CALM 0 0 0 0 1005.6 1004.9 22.4
10/03:00am 25.8 31.1 24.4 92 1.0 SE 4 7 2 4 1005.8 1005.1 22.4
10/02:30am 25.9 30.7 24.5 92 1.0 ESE 7 11 4 6 1006.1 1005.4 22.4
10/02:00am 26.4 32.2 24.6 90 1.3 NW 2 7 1 4 1006.5 1005.7 22.4
10/01:30am 26.6 30.4 24.1 86 1.7 NW 11 15 6 8 1006.8 1006.0 22.4
10/01:00am 25.5 30.9 24.5 94 0.7 WSW 4 11 2 6 1007.0 1006.2 22.4
10/12:30am 25.2 29.9 24.0 93 0.8 NW 6 11 3 6 1007.3 1006.5 22.4
10/12:00am 25.3 28.8 23.5 90 1.2 E 11 24 6 13 1007.9 1007.1 22.0
 
Date/Time
CST
Temp
°C
App
Temp
°C
Dew
Point
Rel
Hum
%
Delta-T
°C
Wind Press
QNH
hPa
Press
MSL
hPa
Rain
since 9 am
mm
Dir
 
Spd
km/h
Gust
km/h
Spd
kts
Gust
kts
09/11:30pm 26.3 28.0 23.0 82 2.3 SSE 19 32 10 17 1008.8 1008.0 14.6
09/11:00pm 26.8 32.1 25.0 90 1.3 N 6 13 3 7 1008.2 1007.4 14.4
09/10:30pm 26.6 30.3 24.6 89 1.4 N 13 20 7 11 1008.1 1007.3 14.4
09/10:00pm 30.7 35.1 24.4 69 4.4 ESE 9 20 5 11 1007.9 1007.1 0.0
09/09:30pm 29.7 35.6 24.1 72 3.9 CALM 0 0 0 0 1007.0 1006.2 0.0
09/09:00pm 29.6 35.3 23.8 71 4.0 CALM 0 4 0 2 1006.7 1005.9 0.0
09/08:30pm 30.0 36.0 24.2 71 4.1 CALM 0 6 0 3 1006.1 1005.4 0.0
09/08:00pm 30.2 35.5 23.1 65 4.9 CALM 0 0 0 0 1005.9 1005.2 0.0
09/07:30pm 31.0 36.2 22.9 62 5.6 CALM 0 0 0 0 1005.6 1004.9 0.0
09/07:00pm 32.2 36.9 22.0 55 7.0 CALM 0 0 0 0 1005.1 1004.4 0.0
09/06:30pm 33.3 37.2 21.1 48 8.3 SSW 2 6 1 3 1004.6 1003.9 0.0
09/06:00pm 34.2 36.3 20.2 43 9.4 WSW 9 13 5 7 1004.3 1003.6 0.0
09/05:30pm 33.8 36.0 21.2 47 8.6 WSW 11 20 6 11 1004.3 1003.6 0.0
09/05:00pm 33.6 35.0 21.1 48 8.5 W 15 26 8 14 1004.3 1003.6 0.0
09/04:30pm 36.2 39.6 21.6 42 10.0 SE 6 7 3 4 1004.5 1003.8 0.0
09/04:00pm 37.7 40.6 19.1 33 12.4 SSE 2 7 1 4 1004.5 1003.8 0.0
09/03:30pm 37.3 39.3 18.8 33 12.3 SE 6 9 3 5 1004.8 1004.1 0.0
09/03:00pm 38.2 40.8 20.5 35 12.0 NW 7 13 4 7 1005.2 1004.5 0.0
09/02:30pm 37.7 39.7 18.7 33 12.6 WSW 6 7 3 4 1005.6 1004.9 0.0
09/02:00pm 37.4 40.6 22.3 41 10.5 NNW 9 15 5 8 1006.1 1005.4 0.0
09/01:30pm 36.4 39.3 21.8 42 10.1 N 9 13 5 7 1006.6 1005.8 0.0
09/01:00pm 36.0 38.3 20.7 41 10.4 NW 9 13 5 7 1007.1 1006.3 0.0
09/12:30pm 35.4 37.8 21.6 44 9.5 NW 11 17 6 9 1007.6 1006.8 0.0
09/12:00pm 35.8 39.2 21.6 43 9.7 W 6 13 3 7 1008.0 1007.2 0.0
09/11:30am 34.7 38.1 21.7 46 8.9 NW 6 11 3 6 1008.5 1007.7 0.0
09/11:00am 34.2 38.1 22.9 51 7.8 WNW 7 11 4 6 1008.9 1008.1 0.0
09/10:30am 33.2 36.9 23.2 55 6.9 SW 9 15 5 8 1009.2 1008.4 0.0
09/10:00am 32.3 35.7 23.3 59 6.2 NW 11 17 6 9 1009.5 1008.7 0.0
09/09:30am 31.4 34.7 23.2 61 5.7 W 11 17 6 9 1009.6 1008.8 0.0
09/09:00am 30.6 34.1 23.5 66 4.9 WNW 11 15 6 8 1009.4 1008.6 0.0
09/08:30am 29.2 32.0 23.6 72 3.9 NW 15 22 8 12 1009.1 1008.3 0.0
09/08:00am 28.2 32.3 24.0 78 2.9 NNW 9 17 5 9 1009.0 1008.2 0.0
09/07:30am 26.3 31.1 24.2 88 1.5 N 6 7 3 4 1008.8 1008.0 0.0
09/07:00am 25.5 30.4 24.3 93 0.8 N 6 9 3 5 1008.4 1007.6 0.0
09/06:30am 25.4 30.0 24.2 93 0.8 NNW 7 9 4 5 1007.8 1007.0 0.0
09/06:00am 25.7 30.5 24.1 91 1.1 NNW 6 7 3 4 1007.5 1006.7 0.0
09/05:30am 25.8 30.6 24.2 91 1.1 NNW 6 9 3 5 1007.3 1006.5 0.0
09/05:00am 25.9 31.0 24.1 90 1.2 NW 4 7 2 4 1007.2 1006.4 0.0
09/04:30am 26.1 30.9 24.1 89 1.4 NW 6 7 3 4 1007.0 1006.2 0.0
09/04:00am 26.4 31.0 24.1 87 1.6 NNW 7 9 4 5 1007.1 1006.3 0.0
09/03:30am 26.7 31.5 24.2 86 1.7 NNW 6 9 3 5 1007.1 1006.3 0.0
09/03:00am 26.9 31.7 24.2 85 1.9 NW 6 7 3 4 1007.1 1006.3 0.0
09/02:30am 27.2 32.7 24.1 83 2.2 NNW 2 7 1 4 1007.3 1006.5 0.0
09/02:00am 27.3 33.3 24.2 83 2.2 CALM 0 0 0 0 1007.6 1006.8 0.0
09/01:30am 27.6 32.5 23.6 79 2.8 NNE 4 6 2 3 1007.9 1007.1 0.0
09/01:00am 27.8 32.8 23.2 76 3.2 N 2 6 1 3 1008.1 1007.3 0.0
09/12:30am 28.3 32.4 23.0 73 3.6 NNW 6 7 3 4 1008.4 1007.6 0.0
09/12:00am 28.9 32.6 22.6 69 4.3 NNW 7 11 4 6 1008.5 1007.7 0.0
 
Date/Time
CST
Temp
°C
App
Temp
°C
Dew
Point
Rel
Hum
%
Delta-T
°C
Wind Press
QNH
hPa
Press
MSL
hPa
Rain
since 9 am
mm
Dir
 
Spd
km/h
Gust
km/h
Spd
kts
Gust
kts
08/11:30pm 28.9 33.8 23.1 71 4.0 ENE 2 7 1 4 1008.6 1007.8 0.0
08/11:00pm 28.6 33.7 22.6 70 4.1 CALM 0 9 0 5 1008.7 1007.9 0.0
08/10:30pm 28.8 33.5 23.9 75 3.4 SE 6 9 3 5 1008.5 1007.7 0.0
08/10:00pm 28.2 33.8 23.6 76 3.2 CALM 0 0 0 0 1008.1 1007.3 0.0
08/09:30pm 28.5 34.4 24.1 77 3.1 CALM 0 0 0 0 1007.8 1007.0 0.0
08/09:00pm 28.8 34.4 23.5 73 3.7 CALM 0 0 0 0 1007.6 1006.8 0.0
08/08:30pm 29.2 34.0 22.2 66 4.8 CALM 0 2 0 1 1007.3 1006.5 0.0
08/08:00pm 30.0 34.2 22.4 63 5.2 SSW 4 6 2 3 1007.0 1006.2 0.0
08/07:30pm 30.9 34.2 21.9 58 6.1 SW 7 9 4 5 1006.5 1005.7 0.0
08/07:00pm 32.4 36.8 21.3 52 7.5 CALM 0 0 0 0 1006.2 1005.5 0.0
08/06:30pm 35.1 39.1 20.6 42 9.8 CALM 0 0 0 0 1006.0 1005.3 0.0
08/06:00pm 35.6 36.4 16.4 32 12.3 SE 7 11 4 6 1005.7 1005.0 0.0
08/05:30pm 36.9 37.0 16.5 30 13.1 SE 11 13 6 7 1005.6 1004.9 0.0
08/05:00pm 37.9 38.6 15.7 27 14.1 SSW 6 9 3 5 1005.4 1004.7 0.0
08/04:30pm 37.4 38.2 15.8 27 13.8 S 6 13 3 7 1005.4 1004.7 0.0
08/04:00pm 37.7 38.6 16.1 28 13.8 ENE 6 15 3 8 1005.4 1004.7 0.0
08/03:30pm 37.6 38.3 16.0 28 13.8 SSE 7 11 4 6 1005.7 1005.0 0.0
08/03:00pm 37.4 38.8 17.4 30 13.0 NW 6 13 3 7 1006.1 1005.4 0.0
08/02:30pm 37.1 38.0 16.6 29 13.2 ENE 7 13 4 7 1006.6 1005.8 0.0
08/02:00pm 37.5 38.3 15.9 28 13.8 SE 6 11 3 6 1007.0 1006.2 0.0
08/01:30pm 36.7 38.1 17.3 31 12.6 N 6 9 3 5 1007.5 1006.7 0.0
08/01:00pm 36.0 37.0 17.7 34 11.9 SE 9 13 5 7 1008.0 1007.2 0.0
08/12:30pm 35.8 37.6 18.8 36 11.2 S 7 11 4 6 1008.4 1007.6 0.0
08/12:00pm 35.2 37.5 19.9 40 10.2 WNW 7 15 4 8 1008.8 1008.0 0.0
08/11:30am 34.8 37.7 21.1 44 9.3 SE 7 15 4 8 1009.0 1008.2 0.0
08/11:00am 33.6 36.7 21.4 48 8.3 NNW 7 13 4 7 1009.4 1008.6 0.0
08/10:30am 32.9 36.7 22.7 55 7.0 SW 7 11 4 6 1009.6 1008.8 0.0
08/10:00am 31.7 35.3 22.1 56 6.5 SW 6 13 3 7 1009.7 1008.9 0.0
08/09:30am 30.9 34.4 22.8 62 5.6 WNW 9 13 5 7 1009.8 1009.0 0.0
08/09:00am 29.7 34.1 23.4 69 4.4 WNW 6 9 3 5 1009.8 1009.0 0.0
08/08:30am 28.4 33.4 23.8 76 3.2 NW 4 9 2 5 1009.7 1008.9 0.0
08/08:00am 26.7 31.1 23.8 84 2.0 NNW 7 9 4 5 1009.7 1008.9 0.0
08/07:30am 25.3 29.8 23.7 91 1.1 N 6 7 3 4 1009.3 1008.5 0.0
08/07:00am 23.9 28.0 23.0 95 0.6 NNW 6 7 3 4 1008.8 1008.0 0.0
08/06:30am 23.6 27.6 22.8 95 0.5 N 6 7 3 4 1008.6 1007.8 0.0
08/06:00am 23.9 28.7 22.9 94 0.7 N 2 6 1 3 1008.4 1007.6 0.0
08/05:30am 23.9 28.0 22.9 94 0.7 N 6 6 3 3 1008.2 1007.4 0.0
08/05:00am 24.2 28.3 23.0 93 0.8 N 6 7 3 4 1008.3 1007.5 0.0
08/04:30am 24.4 28.2 22.8 91 1.1 NNW 7 9 4 5 1008.2 1007.4 0.0
08/04:00am 24.7 28.2 22.9 90 1.2 NNW 9 11 5 6 1008.1 1007.3 0.0
08/03:30am 25.0 29.1 22.9 88 1.4 NNW 6 9 3 5 1008.1 1007.3 0.0
08/03:00am 25.3 29.4 23.0 87 1.6 NNW 6 9 3 5 1008.2 1007.4 0.0
08/02:30am 25.4 29.5 22.9 86 1.7 NNW 6 7 3 4 1008.4 1007.6 0.0
08/02:00am 25.8 29.8 23.1 85 1.8 NNW 7 9 4 5 1008.8 1008.0 0.0
08/01:30am 26.0 29.9 22.9 83 2.1 NNW 7 9 4 5 1009.2 1008.4 0.0
08/01:00am 26.1 30.1 22.8 82 2.2 NNW 6 7 3 4 1009.4 1008.6 0.0
08/12:30am 26.1 30.1 22.8 82 2.2 NNW 6 9 3 5 1009.8 1009.0 0.0
08/12:00am 25.7 31.0 23.0 85 1.8 CALM 0 0 0 0 1009.8 1009.0 0.0
 
Date/Time
CST
Temp
°C
App
Temp
°C
Dew
Point
Rel
Hum
%
Delta-T
°C
Wind Press
QNH
hPa
Press
MSL
hPa
Rain
since 9 am
mm
Dir
 
Spd
km/h
Gust
km/h
Spd
kts
Gust
kts
07/11:30pm 26.1 31.0 22.4 80 2.5 CALM 0 0 0 0 1009.9 1009.1 0.0
07/11:00pm 27.0 30.7 22.2 75 3.2 NNW 6 9 3 5 1009.9 1009.1 0.0
07/10:30pm 25.8 29.9 22.9 84 2.0 S 6 11 3 6 1009.8 1009.0 0.0
07/10:00pm 26.3 31.2 22.4 79 2.6 CALM 0 0 0 0 1009.0 1008.2 0.0
07/09:30pm 26.5 30.0 21.9 76 3.1 NE 6 9 3 5 1008.7 1007.9 0.0
07/09:00pm 26.8 30.0 21.3 72 3.7 SW 6 7 3 4 1008.2 1007.4 0.0
07/08:30pm 27.3 30.5 21.6 71 3.8 SSW 7 7 4 4 1008.0 1007.2 0.0
07/08:00pm 28.1 31.4 21.4 67 4.5 SSW 6 7 3 4 1007.6 1006.8 0.0
07/07:30pm 29.3 32.6 21.8 64 5.1 SSW 7 9 4 5 1007.1 1006.3 0.0
07/07:00pm 31.3 34.0 20.3 52 7.3 SSE 6 6 3 3 1006.6 1005.8 0.0
07/06:30pm 34.9 37.0 18.0 36 11.0 SSE 4 6 2 3 1006.2 1005.5 0.0
07/06:00pm 35.9 36.0 14.5 27 13.4 SSE 7 9 4 5 1005.8 1005.1 0.0
07/05:30pm 36.4 35.9 13.8 26 14.0 SE 9 15 5 8 1005.3 1004.6 0.0
07/05:00pm 36.6 35.6 13.4 25 14.3 SSE 11 15 6 8 1005.0 1004.3 0.0
07/04:30pm 37.0 36.1 13.7 25 14.4 S 11 17 6 9 1005.0 1004.3 0.0

Other Formats:

Comma delimited format used in spreadsheet applications
http://www.bom.gov.au/fwo/IDD60801/IDD60801.94143.axf

JavaScript Object Notation format (JSON) in row-major order
http://www.bom.gov.au/fwo/IDD60801/IDD60801.94143.json